createdAt,value
2022-11-10T00:00:32.236Z,11.60
2022-11-10T00:02:33.828Z,11.70
2022-11-10T00:04:35.459Z,11.60
2022-11-10T00:06:37.149Z,11.60
2022-11-10T00:08:38.825Z,11.60
2022-11-10T00:10:57.557Z,11.60
2022-11-10T00:13:03.294Z,11.60
2022-11-10T00:15:23.297Z,11.60
2022-11-10T00:17:29.822Z,11.50
2022-11-10T00:19:32.106Z,11.50
2022-11-10T00:21:33.638Z,11.50
2022-11-10T00:23:35.248Z,11.50
2022-11-10T00:25:36.833Z,11.40
2022-11-10T00:27:38.750Z,11.40
2022-11-10T00:29:40.888Z,11.40
2022-11-10T00:31:42.625Z,11.40
2022-11-10T00:33:49.728Z,11.40
2022-11-10T00:35:58.284Z,11.40
2022-11-10T00:37:59.840Z,11.40
2022-11-10T00:40:01.464Z,11.40
2022-11-10T00:42:03.220Z,11.50
2022-11-10T00:44:04.753Z,11.50
2022-11-10T00:46:06.302Z,11.50
2022-11-10T00:48:07.947Z,11.50
2022-11-10T00:50:09.656Z,11.50
2022-11-10T00:52:11.332Z,11.50
2022-11-10T00:54:12.877Z,11.50
2022-11-10T00:56:14.434Z,11.60
2022-11-10T00:58:16.085Z,11.60
2022-11-10T01:00:17.826Z,11.50
2022-11-10T01:02:19.367Z,11.50
2022-11-10T01:04:21.009Z,11.50
2022-11-10T01:06:22.723Z,11.50
2022-11-10T01:08:24.582Z,11.50
2022-11-10T01:10:26.726Z,11.50
2022-11-10T01:12:28.995Z,11.50
2022-11-10T01:14:30.537Z,11.50
2022-11-10T01:16:32.516Z,11.50
2022-11-10T01:18:34.407Z,11.40
2022-11-10T01:20:36.050Z,11.40
2022-11-10T01:22:37.611Z,11.40
2022-11-10T01:24:39.362Z,11.40
2022-11-10T01:26:40.935Z,11.40
2022-11-10T01:28:42.746Z,11.40
2022-11-10T01:30:44.290Z,11.40
2022-11-10T01:32:45.935Z,11.40
2022-11-10T01:34:47.500Z,11.40
2022-11-10T01:36:49.031Z,11.50
2022-11-10T01:38:50.586Z,11.50
2022-11-10T01:40:52.162Z,11.40
2022-11-10T01:42:55.129Z,11.50
2022-11-10T01:45:15.414Z,11.40
2022-11-10T01:47:16.998Z,11.30
2022-11-10T01:49:21.999Z,11.30
2022-11-10T01:51:34.817Z,11.40
2022-11-10T01:53:38.698Z,11.30
2022-11-10T01:55:41.779Z,11.40
2022-11-10T01:57:43.572Z,11.30
2022-11-10T01:59:47.147Z,11.40
2022-11-10T02:01:49.057Z,11.40
2022-11-10T02:03:52.402Z,11.30
2022-11-10T02:05:55.048Z,11.30
2022-11-10T02:07:56.728Z,11.20
2022-11-10T02:09:58.466Z,11.20
2022-11-10T02:12:00.108Z,11.20
2022-11-10T02:14:01.919Z,11.20
2022-11-10T02:16:03.543Z,11.10
2022-11-10T02:18:05.292Z,11.00
2022-11-10T02:20:09.996Z,11.00
2022-11-10T02:22:11.542Z,10.90
2022-11-10T02:24:13.210Z,10.80
2022-11-10T02:26:16.098Z,10.70
2022-11-10T02:28:17.701Z,10.60
2022-11-10T02:30:20.457Z,10.60
2022-11-10T02:32:24.598Z,10.60
2022-11-10T02:34:26.152Z,10.50
2022-11-10T02:36:27.754Z,10.50
2022-11-10T02:38:29.314Z,10.50
2022-11-10T02:40:31.017Z,10.40
2022-11-10T02:42:32.558Z,10.50
2022-11-10T02:44:34.146Z,10.40
2022-11-10T02:46:37.464Z,10.40
2022-11-10T02:48:39.089Z,10.40
2022-11-10T02:50:40.979Z,10.40
2022-11-10T02:52:42.598Z,10.50
2022-11-10T02:54:44.189Z,10.50
2022-11-10T02:56:45.841Z,10.50
2022-11-10T02:58:47.368Z,10.50
2022-11-10T03:00:49.049Z,10.50
2022-11-10T03:02:57.799Z,10.50
2022-11-10T03:04:59.490Z,10.50
2022-11-10T03:07:01.216Z,10.50
2022-11-10T03:09:02.893Z,10.40
2022-11-10T03:11:04.580Z,10.30
2022-11-10T03:13:06.215Z,10.20
2022-11-10T03:15:08.115Z,10.20
2022-11-10T03:17:09.719Z,10.10
2022-11-10T03:19:11.233Z,10.00
2022-11-10T03:21:12.786Z,9.90
2022-11-10T03:23:14.339Z,10.00
2022-11-10T03:25:15.897Z,9.90
2022-11-10T03:27:17.460Z,9.90
2022-11-10T03:29:19.152Z,9.90
2022-11-10T03:31:20.786Z,9.90
2022-11-10T03:33:22.612Z,9.80
2022-11-10T03:35:24.433Z,9.80
2022-11-10T03:37:25.994Z,9.90
2022-11-10T03:39:27.690Z,9.90
2022-11-10T03:41:29.241Z,10.00
2022-11-10T03:43:30.802Z,10.00
2022-11-10T03:45:32.364Z,10.00
2022-11-10T03:47:33.888Z,10.00
2022-11-10T03:49:35.429Z,10.00
2022-11-10T03:51:37.009Z,9.90
2022-11-10T03:53:38.549Z,9.90
2022-11-10T03:55:40.087Z,10.00
2022-11-10T03:57:41.737Z,9.90
2022-11-10T03:59:43.334Z,9.80
2022-11-10T04:01:44.910Z,9.70
2022-11-10T04:03:51.516Z,9.70
2022-11-10T04:06:11.809Z,9.70
2022-11-10T04:08:33.950Z,9.60
2022-11-10T04:10:37.612Z,9.50
2022-11-10T04:12:57.743Z,9.40
2022-11-10T04:15:17.914Z,9.50
2022-11-10T04:17:19.419Z,9.60
2022-11-10T04:19:21.223Z,9.60
2022-11-10T04:21:22.829Z,9.50
2022-11-10T04:23:28.427Z,9.50
2022-11-10T04:25:30.044Z,9.40
2022-11-10T04:27:31.595Z,9.50
2022-11-10T04:29:33.300Z,9.60
2022-11-10T04:31:37.333Z,9.40
2022-11-10T04:33:39.662Z,9.40
2022-11-10T04:35:41.263Z,9.30
2022-11-10T04:37:42.797Z,9.30
2022-11-10T04:39:44.463Z,9.20
2022-11-10T04:41:46.921Z,9.10
2022-11-10T04:43:48.566Z,9.20
2022-11-10T04:45:50.128Z,9.20
2022-11-10T04:47:51.725Z,9.00
2022-11-10T04:49:53.292Z,9.10
2022-11-10T04:51:54.887Z,9.00
2022-11-10T04:53:56.731Z,9.10
2022-11-10T04:55:58.387Z,9.10
2022-11-10T04:57:59.974Z,9.10
2022-11-10T05:00:01.645Z,9.10
2022-11-10T05:02:03.227Z,9.10
2022-11-10T05:04:05.565Z,9.00
2022-11-10T05:06:07.535Z,9.00
2022-11-10T05:08:09.358Z,8.80
2022-11-10T05:10:10.955Z,8.80
2022-11-10T05:12:12.559Z,8.70
2022-11-10T05:14:14.181Z,8.80
2022-11-10T05:16:15.886Z,8.70
2022-11-10T05:18:17.456Z,8.70
2022-11-10T05:20:19.814Z,8.80
2022-11-10T05:22:21.400Z,8.70
2022-11-10T05:24:23.020Z,8.60
2022-11-10T05:26:24.632Z,8.50
2022-11-10T05:28:26.271Z,8.60
2022-11-10T05:30:27.913Z,8.50
2022-11-10T05:32:29.463Z,8.40
2022-11-10T05:34:31.001Z,8.30
2022-11-10T05:36:32.661Z,8.30
2022-11-10T05:38:37.564Z,8.30
2022-11-10T05:40:42.083Z,8.30
2022-11-10T05:42:47.710Z,8.30
2022-11-10T05:44:49.297Z,8.30
2022-11-10T05:46:50.834Z,8.20
2022-11-10T05:48:52.457Z,8.30
2022-11-10T05:50:54.049Z,8.30
2022-11-10T05:52:55.843Z,8.20
2022-11-10T05:54:57.567Z,8.10
2022-11-10T05:56:59.228Z,8.10
2022-11-10T05:59:00.815Z,8.20
2022-11-10T06:01:02.401Z,8.20
2022-11-10T06:03:05.281Z,8.10
2022-11-10T06:05:07.127Z,8.10
2022-11-10T06:07:08.753Z,8.10
2022-11-10T06:09:10.531Z,8.00
2022-11-10T06:11:12.690Z,7.90
2022-11-10T06:13:14.483Z,7.90
2022-11-10T06:15:16.874Z,8.00
2022-11-10T06:17:19.152Z,8.00
2022-11-10T06:19:20.731Z,8.00
2022-11-10T06:21:22.306Z,8.10
2022-11-10T06:23:24.132Z,8.20
2022-11-10T06:25:26.148Z,8.10
2022-11-10T06:27:27.829Z,8.00
2022-11-10T06:29:29.379Z,7.90
2022-11-10T06:31:30.917Z,7.90
2022-11-10T06:33:32.465Z,7.90
2022-11-10T06:35:34.105Z,7.80
2022-11-10T06:37:35.649Z,7.90
2022-11-10T06:39:37.364Z,7.80
2022-11-10T06:41:39.004Z,7.80
2022-11-10T06:43:40.634Z,7.80
2022-11-10T06:45:42.230Z,7.80
2022-11-10T06:47:43.810Z,7.90
2022-11-10T06:49:45.386Z,8.00
2022-11-10T06:51:47.011Z,7.90
2022-11-10T06:53:48.609Z,8.00
2022-11-10T06:55:50.357Z,8.10
2022-11-10T06:57:52.177Z,8.10
2022-11-10T06:59:53.975Z,8.10
2022-11-10T07:01:55.522Z,8.20
2022-11-10T07:04:18.193Z,8.30
2022-11-10T07:06:18.717Z,8.30
2022-11-10T07:08:20.268Z,8.40
2022-11-10T07:10:21.912Z,8.40
2022-11-10T07:12:23.535Z,8.50
2022-11-10T07:14:25.192Z,8.70
2022-11-10T07:16:26.888Z,8.80
2022-11-10T07:18:28.476Z,8.80
2022-11-10T07:20:31.477Z,8.90
2022-11-10T07:22:33.078Z,9.10
2022-11-10T07:24:34.827Z,9.10
2022-11-10T07:26:36.508Z,9.10
2022-11-10T07:28:38.657Z,9.20
2022-11-10T07:30:41.730Z,9.10
2022-11-10T07:32:43.754Z,9.10
2022-11-10T07:34:45.354Z,9.10
2022-11-10T07:36:46.997Z,9.10
2022-11-10T07:38:48.643Z,9.10
2022-11-10T07:40:50.897Z,9.20
2022-11-10T07:42:52.563Z,9.10
2022-11-10T07:44:55.246Z,9.10
2022-11-10T07:46:56.912Z,9.10
2022-11-10T07:48:58.469Z,9.20
2022-11-10T07:51:00.095Z,9.20
2022-11-10T07:53:02.934Z,9.20
2022-11-10T07:55:05.773Z,9.10
2022-11-10T07:57:07.418Z,9.10
2022-11-10T07:59:09.113Z,9.10
2022-11-10T08:01:10.751Z,9.20
2022-11-10T08:03:19.402Z,9.20
2022-11-10T08:05:28.281Z,9.20
2022-11-10T08:07:35.830Z,9.30
2022-11-10T08:09:37.430Z,9.30
2022-11-10T08:11:39.136Z,9.30
2022-11-10T08:13:41.230Z,9.40
2022-11-10T08:15:50.853Z,9.30
2022-11-10T08:17:57.695Z,9.30
2022-11-10T08:19:59.270Z,9.40
2022-11-10T08:22:00.862Z,9.40
2022-11-10T08:24:02.486Z,9.50
2022-11-10T08:26:04.090Z,9.60
2022-11-10T08:28:07.455Z,9.60
2022-11-10T08:30:09.282Z,9.60
2022-11-10T08:32:13.175Z,9.60
2022-11-10T08:34:15.863Z,9.70
2022-11-10T08:36:17.798Z,9.70
2022-11-10T08:38:23.292Z,9.80
2022-11-10T08:40:27.648Z,9.70
2022-11-10T08:42:29.205Z,9.70
2022-11-10T08:44:30.841Z,9.80
2022-11-10T08:46:32.539Z,9.80
2022-11-10T08:48:34.119Z,9.90
2022-11-10T08:50:36.186Z,10.10
2022-11-10T08:52:38.025Z,10.10
2022-11-10T08:54:39.595Z,10.00
2022-11-10T08:56:41.281Z,10.10
2022-11-10T08:58:50.154Z,10.10
2022-11-10T09:00:54.473Z,10.20
2022-11-10T09:02:56.656Z,10.30
2022-11-10T09:04:58.431Z,10.40
2022-11-10T09:07:00.063Z,10.40
2022-11-10T09:09:01.767Z,10.40
2022-11-10T09:11:04.214Z,10.40
2022-11-10T09:13:06.403Z,10.50
2022-11-10T09:15:09.049Z,10.50
2022-11-10T09:17:10.686Z,10.60
2022-11-10T09:19:15.539Z,10.60
2022-11-10T09:21:21.241Z,10.80
2022-11-10T09:23:25.093Z,10.90
2022-11-10T09:25:27.039Z,11.10
2022-11-10T09:27:28.570Z,11.30
2022-11-10T09:29:30.180Z,11.50
2022-11-10T09:31:31.886Z,11.50
2022-11-10T09:33:33.545Z,11.70
2022-11-10T09:35:35.187Z,11.80
2022-11-10T09:37:39.829Z,11.80
2022-11-10T09:39:41.572Z,11.80
2022-11-10T09:41:44.070Z,11.90
2022-11-10T09:43:51.595Z,11.90
2022-11-10T09:45:55.192Z,12.00
2022-11-10T09:48:03.134Z,12.10
2022-11-10T09:50:09.148Z,12.20
2022-11-10T09:52:11.816Z,12.20
2022-11-10T09:54:19.503Z,12.30
2022-11-10T09:56:34.493Z,12.40
2022-11-10T09:58:41.129Z,12.60
2022-11-10T10:00:45.326Z,12.50
2022-11-10T10:02:59.037Z,12.70
2022-11-10T10:05:19.426Z,12.70
2022-11-10T10:07:39.900Z,12.60
2022-11-10T10:09:42.113Z,12.60
2022-11-10T10:11:49.605Z,12.70
2022-11-10T10:14:03.455Z,12.70
2022-11-10T10:16:05.121Z,12.80
2022-11-10T10:18:15.436Z,13.20
2022-11-10T10:20:24.686Z,13.40
2022-11-10T10:22:44.998Z,13.50
2022-11-10T10:24:53.434Z,13.70
2022-11-10T10:26:56.993Z,13.90
2022-11-10T10:29:00.612Z,13.90
2022-11-10T10:31:13.626Z,14.10
2022-11-10T10:33:18.322Z,14.20
2022-11-10T10:35:19.960Z,14.30
2022-11-10T10:37:26.250Z,14.50
2022-11-10T10:39:35.694Z,14.50
2022-11-10T10:41:38.293Z,14.60
2022-11-10T10:43:46.210Z,14.80
2022-11-10T10:46:02.763Z,14.60
2022-11-10T10:48:23.126Z,14.80
2022-11-10T10:50:32.326Z,15.20
2022-11-10T10:52:33.939Z,15.20
2022-11-10T10:54:36.500Z,15.30
2022-11-10T10:56:38.164Z,15.40
2022-11-10T10:58:51.649Z,15.50
2022-11-10T11:00:55.915Z,15.50
2022-11-10T11:03:04.438Z,15.50
2022-11-10T11:05:10.006Z,15.70
2022-11-10T11:07:21.043Z,15.90
2022-11-10T11:09:27.206Z,16.10
2022-11-10T11:11:33.568Z,16.30
2022-11-10T11:13:35.163Z,16.30
2022-11-10T11:15:36.760Z,16.60
2022-11-10T11:17:38.869Z,16.70
2022-11-10T11:19:40.864Z,16.60
2022-11-10T11:21:48.234Z,16.70
2022-11-10T11:23:49.833Z,16.50
2022-11-10T11:25:51.673Z,16.10
2022-11-10T11:28:03.983Z,15.90
2022-11-10T11:30:25.808Z,15.90
2022-11-10T11:32:44.634Z,16.00
2022-11-10T11:34:49.222Z,16.20
2022-11-10T11:36:54.007Z,16.60
2022-11-10T11:39:05.216Z,16.60
2022-11-10T11:41:19.133Z,17.10
2022-11-10T11:43:26.886Z,17.20
2022-11-10T11:45:44.081Z,16.70
2022-11-10T11:48:04.277Z,16.30
2022-11-10T11:50:08.810Z,16.70
2022-11-10T11:52:18.832Z,17.10
2022-11-10T11:54:35.447Z,17.20
2022-11-10T11:56:39.721Z,17.50
2022-11-10T11:58:44.715Z,17.50
2022-11-10T12:01:06.653Z,17.80
2022-11-10T12:03:20.074Z,17.50
2022-11-10T12:05:33.845Z,17.70
2022-11-10T12:07:45.145Z,17.40
2022-11-10T12:10:02.486Z,17.90
2022-11-10T12:12:19.350Z,18.10
2022-11-10T12:14:33.146Z,17.90
2022-11-10T12:16:35.125Z,17.70
2022-11-10T12:18:40.084Z,17.60
2022-11-10T12:20:41.606Z,17.60
2022-11-10T12:22:55.618Z,17.40
2022-11-10T12:25:12.552Z,17.90
2022-11-10T12:27:32.923Z,17.80
2022-11-10T12:29:37.721Z,18.10
2022-11-10T12:31:41.230Z,18.20
2022-11-10T12:33:48.782Z,18.40
2022-11-10T12:35:52.792Z,18.30
2022-11-10T12:38:05.852Z,18.40
2022-11-10T12:40:19.064Z,18.60
2022-11-10T12:42:21.953Z,19.30
2022-11-10T12:44:30.633Z,21.00
2022-11-10T12:46:32.210Z,20.60
2022-11-10T12:48:52.460Z,20.20
2022-11-10T12:51:12.477Z,20.10
2022-11-10T12:53:14.061Z,19.90
2022-11-10T12:55:15.791Z,19.80
2022-11-10T12:57:24.517Z,20.10
2022-11-10T12:59:26.128Z,20.10
2022-11-10T13:01:28.128Z,19.20
2022-11-10T13:03:31.278Z,18.70
2022-11-10T13:05:36.308Z,18.10
2022-11-10T13:07:37.956Z,18.10
2022-11-10T13:09:41.178Z,17.70
2022-11-10T13:12:02.719Z,18.00
2022-11-10T13:14:18.705Z,18.40
2022-11-10T13:16:41.874Z,18.40
2022-11-10T13:18:43.446Z,18.60
2022-11-10T13:20:46.625Z,18.30
2022-11-10T13:22:48.367Z,17.20
2022-11-10T13:24:52.682Z,17.60
2022-11-10T13:26:55.487Z,17.50
2022-11-10T13:28:58.648Z,17.20
2022-11-10T13:31:00.268Z,17.40
2022-11-10T13:33:29.751Z,17.70
2022-11-10T13:35:34.491Z,17.60
2022-11-10T13:37:36.147Z,17.30
2022-11-10T13:39:39.398Z,17.60
2022-11-10T13:41:46.452Z,17.50
2022-11-10T13:43:55.012Z,17.70
2022-11-10T13:46:00.995Z,17.90
2022-11-10T13:48:11.699Z,18.20
2022-11-10T13:50:25.686Z,18.10
2022-11-10T13:52:42.956Z,17.90
2022-11-10T13:54:58.433Z,17.80
2022-11-10T13:57:07.110Z,17.80
2022-11-10T13:59:19.018Z,17.90
2022-11-10T14:01:22.990Z,18.10
2022-11-10T14:03:57.193Z,18.10
2022-11-10T14:06:02.290Z,18.20
2022-11-10T14:08:06.656Z,18.20
2022-11-10T14:10:12.982Z,18.00
2022-11-10T14:12:28.016Z,17.60
2022-11-10T14:14:51.930Z,17.40
2022-11-10T14:16:54.270Z,17.40
2022-11-10T14:19:04.967Z,17.70
2022-11-10T14:21:09.688Z,17.50
2022-11-10T14:23:17.927Z,17.60
2022-11-10T14:25:19.455Z,17.60
2022-11-10T14:27:27.427Z,17.20
2022-11-10T14:29:38.270Z,16.90
2022-11-10T14:31:52.945Z,16.80
2022-11-10T14:33:55.954Z,17.10
2022-11-10T14:35:59.690Z,17.00
2022-11-10T14:38:02.269Z,16.80
2022-11-10T14:40:04.262Z,16.80
2022-11-10T14:42:05.965Z,16.50
2022-11-10T14:44:11.218Z,16.50
2022-11-10T14:46:13.942Z,16.30
2022-11-10T14:48:17.501Z,16.20
2022-11-10T14:50:29.181Z,15.90
2022-11-10T14:52:30.829Z,15.70
2022-11-10T14:54:34.962Z,15.60
2022-11-10T14:56:36.791Z,15.60
2022-11-10T14:58:39.701Z,15.70
2022-11-10T15:00:44.459Z,15.60
2022-11-10T15:02:46.163Z,15.50
2022-11-10T15:04:50.145Z,15.40
2022-11-10T15:06:52.410Z,15.40
2022-11-10T15:08:54.224Z,15.30
2022-11-10T15:10:59.040Z,15.00
2022-11-10T15:13:05.518Z,15.00
2022-11-10T15:15:20.861Z,14.90
2022-11-10T15:17:42.499Z,14.80
2022-11-10T15:19:44.112Z,14.70
2022-11-10T15:21:45.806Z,14.50
2022-11-10T15:23:52.662Z,14.40
2022-11-10T15:25:54.245Z,14.20
2022-11-10T15:28:06.459Z,14.00
2022-11-10T15:30:20.895Z,13.80
2022-11-10T15:32:24.358Z,13.70
2022-11-10T15:34:30.767Z,13.50
2022-11-10T15:36:32.418Z,13.40
2022-11-10T15:38:33.985Z,13.30
2022-11-10T15:40:35.690Z,13.20
2022-11-10T15:42:37.257Z,13.10
2022-11-10T15:44:38.897Z,13.10
2022-11-10T15:46:40.473Z,12.90
2022-11-10T15:48:44.109Z,12.70
2022-11-10T15:50:47.281Z,12.60
2022-11-10T15:52:48.864Z,12.50
2022-11-10T15:54:50.834Z,12.40
2022-11-10T15:56:52.592Z,12.20
2022-11-10T15:58:57.890Z,12.30
2022-11-10T16:01:02.608Z,12.30
2022-11-10T16:03:04.373Z,12.30
2022-11-10T16:05:10.845Z,12.20
2022-11-10T16:07:12.476Z,12.00
2022-11-10T16:09:14.181Z,11.90
2022-11-10T16:11:20.133Z,11.80
2022-11-10T16:13:29.271Z,11.80
2022-11-10T16:15:32.528Z,11.70
2022-11-10T16:17:34.652Z,11.60
2022-11-10T16:19:36.226Z,11.60
2022-11-10T16:21:37.840Z,11.50
2022-11-10T16:23:39.515Z,11.40
2022-11-10T16:25:41.631Z,11.30
2022-11-10T16:27:43.174Z,11.40
2022-11-10T16:29:44.808Z,11.30
2022-11-10T16:31:46.447Z,11.30
2022-11-10T16:33:48.634Z,11.20
2022-11-10T16:35:52.471Z,11.10
2022-11-10T16:37:54.296Z,11.10
2022-11-10T16:39:56.969Z,11.00
2022-11-10T16:41:59.595Z,10.90
2022-11-10T16:44:01.224Z,10.80
2022-11-10T16:46:04.642Z,10.80
2022-11-10T16:48:08.477Z,10.70
2022-11-10T16:50:28.450Z,10.70
2022-11-10T16:52:37.141Z,10.60
2022-11-10T16:54:38.753Z,10.50
2022-11-10T16:56:40.407Z,10.50
2022-11-10T16:58:42.056Z,10.40
2022-11-10T17:00:43.933Z,10.30
2022-11-10T17:02:51.661Z,10.40
2022-11-10T17:05:04.150Z,10.30
2022-11-10T17:07:11.051Z,10.40
2022-11-10T17:09:17.642Z,10.30
2022-11-10T17:11:19.205Z,10.40
2022-11-10T17:13:23.543Z,10.50
2022-11-10T17:15:25.232Z,10.20
2022-11-10T17:17:26.875Z,10.20
2022-11-10T17:19:28.475Z,10.10
2022-11-10T17:21:33.076Z,10.00
2022-11-10T17:23:36.048Z,9.90
2022-11-10T17:25:37.820Z,10.10
2022-11-10T17:27:39.427Z,10.00
2022-11-10T17:29:40.989Z,9.90
2022-11-10T17:31:42.823Z,9.80
2022-11-10T17:33:44.411Z,9.80
2022-11-10T17:35:46.911Z,9.80
2022-11-10T17:37:49.818Z,9.80
2022-11-10T17:39:51.529Z,9.70
2022-11-10T17:41:53.269Z,9.60
2022-11-10T17:43:54.837Z,9.50
2022-11-10T17:45:56.415Z,9.50
2022-11-10T17:47:58.435Z,9.50
2022-11-10T17:50:00.015Z,9.40
2022-11-10T17:52:01.562Z,9.50
2022-11-10T17:54:06.262Z,9.40
2022-11-10T17:56:07.852Z,9.30
2022-11-10T17:58:10.246Z,9.30
2022-11-10T18:00:12.342Z,9.20
2022-11-10T18:02:13.894Z,9.10
2022-11-10T18:04:15.484Z,9.20
2022-11-10T18:06:18.082Z,9.10
2022-11-10T18:08:20.089Z,8.90
2022-11-10T18:10:21.643Z,9.00
2022-11-10T18:12:27.814Z,9.20
2022-11-10T18:14:30.359Z,9.40
2022-11-10T18:16:32.787Z,9.60
2022-11-10T18:18:34.947Z,9.30
2022-11-10T18:20:36.529Z,9.10
2022-11-10T18:22:38.737Z,9.10
2022-11-10T18:24:40.455Z,9.00
2022-11-10T18:26:43.210Z,8.90
2022-11-10T18:28:48.442Z,8.90
2022-11-10T18:30:50.114Z,8.80
2022-11-10T18:32:51.701Z,8.70
2022-11-10T18:34:53.350Z,8.70
2022-11-10T18:36:55.101Z,8.60
2022-11-10T18:38:56.728Z,8.70
2022-11-10T18:41:23.935Z,8.70
2022-11-10T18:43:25.610Z,8.70
2022-11-10T18:45:27.411Z,8.60
2022-11-10T18:47:28.994Z,8.50
2022-11-10T18:49:30.699Z,8.50
2022-11-10T18:51:32.372Z,8.50
2022-11-10T18:53:38.077Z,8.50
2022-11-10T18:55:45.228Z,8.50
2022-11-10T18:57:47.221Z,8.50
2022-11-10T18:59:48.817Z,8.50
2022-11-10T19:01:50.862Z,8.40
2022-11-10T19:03:53.098Z,8.40
2022-11-10T19:05:58.650Z,8.40
2022-11-10T19:08:00.416Z,8.50
2022-11-10T19:10:02.032Z,8.50
2022-11-10T19:12:03.764Z,8.50
2022-11-10T19:14:05.398Z,8.50
2022-11-10T19:16:09.216Z,8.50
2022-11-10T19:18:10.861Z,8.50
2022-11-10T19:20:14.622Z,8.40
2022-11-10T19:22:16.276Z,8.30
2022-11-10T19:24:27.693Z,8.30
2022-11-10T19:26:30.031Z,8.20
2022-11-10T19:28:31.970Z,8.30
2022-11-10T19:30:33.519Z,8.30
2022-11-10T19:32:35.121Z,8.30
2022-11-10T19:34:36.724Z,8.20
2022-11-10T19:36:38.400Z,8.10
2022-11-10T19:38:40.634Z,8.00
2022-11-10T19:40:44.530Z,8.00
2022-11-10T19:42:46.338Z,8.00
2022-11-10T19:44:48.023Z,7.90
2022-11-10T19:46:49.756Z,7.90
2022-11-10T19:48:51.539Z,7.90
2022-11-10T19:50:54.304Z,7.90
2022-11-10T19:52:56.003Z,8.00
2022-11-10T19:54:57.577Z,7.90
2022-11-10T19:56:59.361Z,7.90
2022-11-10T19:59:01.018Z,7.90
2022-11-10T20:01:02.786Z,7.80
2022-11-10T20:03:04.498Z,7.70
2022-11-10T20:05:12.288Z,7.70
2022-11-10T20:07:35.027Z,7.80
2022-11-10T20:09:36.716Z,7.80
2022-11-10T20:11:41.374Z,7.70
2022-11-10T20:13:43.167Z,7.70
2022-11-10T20:15:45.015Z,7.60
2022-11-10T20:17:46.797Z,7.60
2022-11-10T20:19:49.084Z,7.70
2022-11-10T20:21:51.028Z,7.60
2022-11-10T20:23:53.736Z,7.50
2022-11-10T20:26:21.786Z,7.50
2022-11-10T20:28:23.327Z,7.50
2022-11-10T20:30:25.265Z,7.50
2022-11-10T20:32:27.092Z,7.30
2022-11-10T20:34:29.001Z,7.30
2022-11-10T20:36:31.501Z,7.30
2022-11-10T20:38:33.311Z,7.30
2022-11-10T20:40:50.192Z,7.30
2022-11-10T20:42:52.457Z,7.30
2022-11-10T20:44:55.095Z,7.40
2022-11-10T20:46:56.703Z,7.30
2022-11-10T20:48:58.286Z,7.20
2022-11-10T20:51:00.462Z,7.10
2022-11-10T20:53:02.447Z,7.30
2022-11-10T20:55:05.417Z,7.40
2022-11-10T20:57:06.966Z,7.30
2022-11-10T20:59:08.600Z,7.20
2022-11-10T21:01:11.946Z,7.40
2022-11-10T21:03:13.636Z,7.50
2022-11-10T21:05:15.237Z,7.50
2022-11-10T21:07:16.863Z,7.50
2022-11-10T21:09:19.850Z,7.10
2022-11-10T21:11:40.010Z,7.20
2022-11-10T21:13:41.633Z,7.00
2022-11-10T21:15:43.532Z,6.90
2022-11-10T21:17:45.360Z,7.10
2022-11-10T21:19:48.408Z,7.10
2022-11-10T21:21:51.008Z,7.30
2022-11-10T21:23:57.021Z,7.10
2022-11-10T21:25:59.819Z,7.10
2022-11-10T21:28:01.888Z,7.20
2022-11-10T21:30:05.472Z,7.20
2022-11-10T21:32:08.584Z,7.30
2022-11-10T21:34:10.789Z,7.30
2022-11-10T21:36:12.584Z,7.30
2022-11-10T21:38:14.542Z,7.30
2022-11-10T21:40:16.382Z,7.10
2022-11-10T21:42:20.735Z,6.90
2022-11-10T21:44:24.907Z,6.80
2022-11-10T21:46:26.575Z,6.80
2022-11-10T21:48:28.273Z,6.80
2022-11-10T21:50:29.891Z,7.00
2022-11-10T21:52:32.555Z,7.10
2022-11-10T21:54:34.204Z,6.90
2022-11-10T21:56:35.929Z,6.80
2022-11-10T21:58:38.403Z,6.80
2022-11-10T22:00:39.967Z,6.90
2022-11-10T22:02:41.500Z,6.90
2022-11-10T22:04:43.058Z,6.90
2022-11-10T22:07:03.574Z,6.80
2022-11-10T22:09:05.260Z,6.70
2022-11-10T22:11:30.380Z,6.60
2022-11-10T22:13:50.658Z,6.60
2022-11-10T22:16:10.881Z,6.60
2022-11-10T22:18:32.098Z,6.60
2022-11-10T22:20:33.835Z,6.60
2022-11-10T22:22:35.391Z,6.70
2022-11-10T22:24:37.027Z,6.60
2022-11-10T22:26:38.563Z,6.70
2022-11-10T22:28:40.410Z,6.60
2022-11-10T22:30:42.153Z,6.50
2022-11-10T22:32:43.776Z,6.60
2022-11-10T22:34:47.766Z,6.50
2022-11-10T22:39:08.699Z,6.40
2022-11-10T22:41:31.126Z,6.30
2022-11-10T22:43:57.181Z,6.40
2022-11-10T22:45:58.859Z,6.40
2022-11-10T22:48:18.897Z,6.40
2022-11-10T22:50:22.537Z,6.50
2022-11-10T22:52:26.319Z,6.40
2022-11-10T22:54:35.154Z,6.50
2022-11-10T22:56:36.892Z,6.50
2022-11-10T22:58:38.821Z,6.40
2022-11-10T23:00:40.373Z,6.30
2022-11-10T23:02:41.919Z,6.30
2022-11-10T23:04:43.500Z,6.20
2022-11-10T23:06:45.211Z,6.30
2022-11-10T23:08:46.859Z,6.10
2022-11-10T23:10:48.519Z,6.10
2022-11-10T23:12:50.131Z,6.10
2022-11-10T23:14:51.777Z,6.20
2022-11-10T23:16:53.337Z,6.10
2022-11-10T23:18:55.874Z,6.10
2022-11-10T23:20:58.495Z,6.00
2022-11-10T23:23:00.077Z,5.90
2022-11-10T23:25:01.625Z,5.90
2022-11-10T23:27:03.308Z,5.90
2022-11-10T23:29:04.902Z,6.10
2022-11-10T23:31:06.469Z,5.90
2022-11-10T23:33:08.035Z,5.90
2022-11-10T23:35:09.578Z,5.80
2022-11-10T23:37:11.104Z,5.80
2022-11-10T23:39:13.605Z,5.80
2022-11-10T23:41:16.446Z,5.70
2022-11-10T23:43:17.988Z,5.90
2022-11-10T23:45:19.537Z,6.00
2022-11-10T23:47:21.084Z,5.90
2022-11-10T23:49:22.632Z,5.80
2022-11-10T23:51:25.727Z,5.70
2022-11-10T23:53:27.378Z,5.70
2022-11-10T23:55:29.064Z,5.70
2022-11-10T23:57:30.645Z,5.60
2022-11-10T23:59:32.219Z,5.80
